DLH6YM EDDF-EDDN
Flight info
| Callsign | DLH6YM |
|---|---|
| Flight time | 0h 33m |
| Altitude | 19000 |
| Route | CINDY8S/18 CINDY Z74 HAREM T104 ELMOX DCT LETKU LETKU1V |
| Aircraft | A320/M-SDE2E3FGIJ1LORWXYZ/HB1 |
Departure
| Time | 2026-05-05 17:51 |
|---|---|
| Airport | Frankfurt Main Airport (EDDF) |
Arrival
| Time | 2026-05-05 18:25 |
|---|---|
| Airport | Nuremberg Airport (EDDN) |
| Time | Latitude | Longitude | Altitude | Speed | Heading |
|---|---|---|---|---|---|
| 2026-05-05 17:23 | 50.04895 | 8.56994 | 361 ft | 0 kts | 295° |
| 2026-05-05 17:36 | 50.04894 | 8.56997 | 356 ft | 2 kts | 295° |
| 2026-05-05 17:36 | 50.04884 | 8.57034 | 360 ft | 4 kts | 295° |
| 2026-05-05 17:37 | 50.04875 | 8.57063 | 357 ft | 4 kts | 292° |
| 2026-05-05 17:37 | 50.04871 | 8.57085 | 362 ft | 4 kts | 251° |
| 2026-05-05 17:37 | 50.04855 | 8.57068 | 358 ft | 4 kts | 207° |
| 2026-05-05 17:37 | 50.04830 | 8.57055 | 361 ft | 4 kts | 197° |
| 2026-05-05 17:38 | 50.04804 | 8.57042 | 358 ft | 4 kts | 201° |
| 2026-05-05 17:38 | 50.04794 | 8.57034 | 356 ft | 0 kts | 205° |
| 2026-05-05 17:41 | 50.04788 | 8.57030 | 356 ft | 3 kts | 205° |
| 2026-05-05 17:42 | 50.04747 | 8.57001 | 357 ft | 9 kts | 205° |
| 2026-05-05 17:42 | 50.04676 | 8.56950 | 360 ft | 11 kts | 205° |
| 2026-05-05 17:42 | 50.04604 | 8.56910 | 356 ft | 11 kts | 193° |
| 2026-05-05 17:42 | 50.04546 | 8.56889 | 361 ft | 8 kts | 193° |
| 2026-05-05 17:43 | 50.04474 | 8.56857 | 366 ft | 13 kts | 207° |
| 2026-05-05 17:43 | 50.04425 | 8.56716 | 364 ft | 17 kts | 249° |
| 2026-05-05 17:43 | 50.04385 | 8.56549 | 359 ft | 16 kts | 249° |
| 2026-05-05 17:43 | 50.04346 | 8.56384 | 360 ft | 16 kts | 250° |
| 2026-05-05 17:44 | 50.04307 | 8.56222 | 362 ft | 17 kts | 249° |
| 2026-05-05 17:44 | 50.04260 | 8.56026 | 362 ft | 22 kts | 249° |
| 2026-05-05 17:44 | 50.04202 | 8.55784 | 359 ft | 25 kts | 250° |
| 2026-05-05 17:44 | 50.04142 | 8.55532 | 353 ft | 19 kts | 249° |
| 2026-05-05 17:45 | 50.04105 | 8.55376 | 358 ft | 13 kts | 250° |
| 2026-05-05 17:45 | 50.04077 | 8.55259 | 359 ft | 11 kts | 249° |
| 2026-05-05 17:45 | 50.04048 | 8.55140 | 359 ft | 13 kts | 249° |
| 2026-05-05 17:45 | 50.04015 | 8.55000 | 355 ft | 15 kts | 249° |
| 2026-05-05 17:46 | 50.03990 | 8.54896 | 355 ft | 17 kts | 249° |
| 2026-05-05 17:46 | 50.03946 | 8.54714 | 354 ft | 19 kts | 250° |
| 2026-05-05 17:46 | 50.03896 | 8.54506 | 353 ft | 22 kts | 249° |
| 2026-05-05 17:46 | 50.03826 | 8.54296 | 352 ft | 21 kts | 234° |
| 2026-05-05 17:47 | 50.03769 | 8.54095 | 348 ft | 20 kts | 249° |
| 2026-05-05 17:47 | 50.03723 | 8.53902 | 343 ft | 19 kts | 249° |
| 2026-05-05 17:47 | 50.03675 | 8.53701 | 346 ft | 21 kts | 250° |
| 2026-05-05 17:47 | 50.03620 | 8.53483 | 337 ft | 22 kts | 249° |
| 2026-05-05 17:48 | 50.03566 | 8.53259 | 339 ft | 21 kts | 250° |
| 2026-05-05 17:48 | 50.03516 | 8.53052 | 335 ft | 20 kts | 249° |
| 2026-05-05 17:48 | 50.03468 | 8.52860 | 334 ft | 18 kts | 242° |
| 2026-05-05 17:48 | 50.03434 | 8.52733 | 331 ft | 4 kts | 250° |
| 2026-05-05 17:49 | 50.03428 | 8.52705 | 332 ft | 4 kts | 250° |
| 2026-05-05 17:49 | 50.03394 | 8.52621 | 333 ft | 14 kts | 220° |
| 2026-05-05 17:49 | 50.03307 | 8.52594 | 336 ft | 4 kts | 179° |
| 2026-05-05 17:50 | 50.03264 | 8.52595 | 334 ft | 26 kts | 179° |
| 2026-05-05 17:51 | 50.02814 | 8.52599 | 336 ft | 99 kts | 180° |
| 2026-05-05 17:51 | 50.01941 | 8.52607 | 334 ft | 152 kts | 180° |
| 2026-05-05 17:51 | 50.00813 | 8.52605 | 899 ft | 160 kts | 181° |
| 2026-05-05 17:51 | 49.99693 | 8.52615 | 1680 ft | 165 kts | 182° |
| 2026-05-05 17:52 | 49.98474 | 8.52619 | 2111 ft | 186 kts | 182° |
| 2026-05-05 17:52 | 49.97114 | 8.52926 | 2479 ft | 214 kts | 157° |
| 2026-05-05 17:52 | 49.95966 | 8.54496 | 3060 ft | 235 kts | 123° |
| 2026-05-05 17:52 | 49.95157 | 8.56743 | 3800 ft | 239 kts | 121° |
| 2026-05-05 17:53 | 49.94372 | 8.59034 | 4722 ft | 241 kts | 115° |
| 2026-05-05 17:53 | 49.93993 | 8.61625 | 5489 ft | 258 kts | 96° |
| 2026-05-05 17:53 | 49.93872 | 8.64520 | 6111 ft | 276 kts | 95° |
| 2026-05-05 17:53 | 49.93555 | 8.67477 | 6972 ft | 280 kts | 111° |
| 2026-05-05 17:54 | 49.92674 | 8.70167 | 7894 ft | 281 kts | 129° |
| 2026-05-05 17:54 | 49.91356 | 8.72394 | 8838 ft | 283 kts | 135° |
| 2026-05-05 17:54 | 49.90223 | 8.74944 | 9755 ft | 291 kts | 121° |
| 2026-05-05 17:54 | 49.89324 | 8.77847 | 10309 ft | 310 kts | 116° |
| 2026-05-05 17:55 | 49.88475 | 8.81041 | 10784 ft | 328 kts | 114° |
| 2026-05-05 17:55 | 49.87619 | 8.84358 | 11541 ft | 335 kts | 114° |
| 2026-05-05 17:55 | 49.86723 | 8.87720 | 12352 ft | 340 kts | 115° |
| 2026-05-05 17:55 | 49.85763 | 8.91144 | 13163 ft | 344 kts | 116° |
| 2026-05-05 17:56 | 49.84783 | 8.94504 | 13909 ft | 350 kts | 117° |
| 2026-05-05 17:56 | 49.83763 | 8.97960 | 14568 ft | 355 kts | 117° |
| 2026-05-05 17:56 | 49.82715 | 9.01447 | 15299 ft | 358 kts | 117° |
| 2026-05-05 17:56 | 49.81651 | 9.04945 | 16061 ft | 360 kts | 118° |
| 2026-05-05 17:57 | 49.80578 | 9.08459 | 16811 ft | 363 kts | 118° |
| 2026-05-05 17:57 | 49.79498 | 9.12007 | 17536 ft | 366 kts | 118° |
| 2026-05-05 17:57 | 49.78410 | 9.15590 | 18258 ft | 368 kts | 117° |
| 2026-05-05 17:57 | 49.77316 | 9.19189 | 18673 ft | 371 kts | 117° |
| 2026-05-05 17:58 | 49.76222 | 9.22793 | 18798 ft | 369 kts | 117° |
| 2026-05-05 17:58 | 49.75159 | 9.26302 | 18823 ft | 352 kts | 117° |
| 2026-05-05 17:58 | 49.74132 | 9.29685 | 18826 ft | 345 kts | 118° |
| 2026-05-05 17:58 | 49.73112 | 9.33026 | 18825 ft | 343 kts | 118° |
| 2026-05-05 17:59 | 49.72091 | 9.36355 | 18826 ft | 343 kts | 118° |
| 2026-05-05 17:59 | 49.71071 | 9.39677 | 18828 ft | 342 kts | 118° |
| 2026-05-05 17:59 | 49.70052 | 9.43003 | 18823 ft | 343 kts | 118° |
| 2026-05-05 17:59 | 49.69031 | 9.46329 | 18823 ft | 342 kts | 118° |
| 2026-05-05 18:00 | 49.68011 | 9.49649 | 18814 ft | 342 kts | 118° |
| 2026-05-05 18:00 | 49.66987 | 9.52972 | 18829 ft | 342 kts | 118° |
| 2026-05-05 18:00 | 49.65965 | 9.56288 | 18828 ft | 342 kts | 118° |
| 2026-05-05 18:00 | 49.64942 | 9.59599 | 18831 ft | 342 kts | 118° |
| 2026-05-05 18:01 | 49.63919 | 9.62903 | 18832 ft | 342 kts | 118° |
| 2026-05-05 18:01 | 49.62889 | 9.66211 | 18831 ft | 342 kts | 118° |
| 2026-05-05 18:01 | 49.61858 | 9.69518 | 18841 ft | 342 kts | 118° |
| 2026-05-05 18:01 | 49.60827 | 9.72825 | 18834 ft | 342 kts | 118° |
| 2026-05-05 18:02 | 49.59798 | 9.76122 | 18832 ft | 342 kts | 118° |
| 2026-05-05 18:02 | 49.58768 | 9.79437 | 18833 ft | 342 kts | 118° |
| 2026-05-05 18:02 | 49.57740 | 9.82744 | 18838 ft | 342 kts | 118° |
| 2026-05-05 18:02 | 49.56710 | 9.86052 | 18833 ft | 342 kts | 118° |
| 2026-05-05 18:03 | 49.55682 | 9.89346 | 18838 ft | 342 kts | 118° |
| 2026-05-05 18:03 | 49.54647 | 9.92653 | 18830 ft | 342 kts | 118° |
| 2026-05-05 18:03 | 49.53616 | 9.95947 | 18823 ft | 342 kts | 118° |
| 2026-05-05 18:03 | 49.52578 | 9.99258 | 18819 ft | 343 kts | 118° |
| 2026-05-05 18:04 | 49.51540 | 10.02567 | 18822 ft | 344 kts | 118° |
| 2026-05-05 18:04 | 49.50496 | 10.05887 | 18828 ft | 344 kts | 118° |
| 2026-05-05 18:04 | 49.49450 | 10.09202 | 18820 ft | 345 kts | 118° |
| 2026-05-05 18:04 | 49.48404 | 10.12513 | 18785 ft | 343 kts | 118° |
| 2026-05-05 18:05 | 49.47372 | 10.15787 | 18548 ft | 337 kts | 118° |
| 2026-05-05 18:05 | 49.46352 | 10.19017 | 18313 ft | 335 kts | 118° |
| 2026-05-05 18:05 | 49.45333 | 10.22232 | 18068 ft | 334 kts | 119° |
| 2026-05-05 18:05 | 49.44313 | 10.25439 | 17795 ft | 334 kts | 119° |
| 2026-05-05 18:06 | 49.43297 | 10.28634 | 17536 ft | 333 kts | 118° |
| 2026-05-05 18:06 | 49.42605 | 10.30808 | 17349 ft | 332 kts | 119° |
| 2026-05-05 18:06 | 49.41262 | 10.35023 | 16995 ft | 330 kts | 119° |
| 2026-05-05 18:06 | 49.40263 | 10.38152 | 16734 ft | 329 kts | 119° |
| 2026-05-05 18:07 | 49.39256 | 10.41305 | 16477 ft | 328 kts | 119° |
| 2026-05-05 18:07 | 49.38254 | 10.44442 | 16218 ft | 327 kts | 119° |
| 2026-05-05 18:07 | 49.37256 | 10.47567 | 15960 ft | 326 kts | 118° |
| 2026-05-05 18:07 | 49.36559 | 10.50881 | 15724 ft | 329 kts | 102° |
| 2026-05-05 18:08 | 49.36499 | 10.54393 | 15473 ft | 332 kts | 84° |
| 2026-05-05 18:08 | 49.37101 | 10.57807 | 15227 ft | 333 kts | 66° |
| 2026-05-05 18:08 | 49.38319 | 10.60825 | 14979 ft | 333 kts | 49° |
| 2026-05-05 18:08 | 49.39926 | 10.63373 | 14736 ft | 332 kts | 45° |
| 2026-05-05 18:09 | 49.41343 | 10.66160 | 14491 ft | 332 kts | 59° |
| 2026-05-05 18:09 | 49.42315 | 10.69359 | 14252 ft | 330 kts | 73° |
| 2026-05-05 18:09 | 49.42813 | 10.72776 | 14016 ft | 327 kts | 86° |
| 2026-05-05 18:09 | 49.42821 | 10.76237 | 13781 ft | 324 kts | 99° |
| 2026-05-05 18:10 | 49.42528 | 10.79315 | 13538 ft | 321 kts | 102° |
| 2026-05-05 18:10 | 49.42199 | 10.82692 | 13272 ft | 318 kts | 102° |
| 2026-05-05 18:10 | 49.41877 | 10.86042 | 13006 ft | 317 kts | 102° |
| 2026-05-05 18:10 | 49.41555 | 10.89384 | 12743 ft | 316 kts | 102° |
| 2026-05-05 18:11 | 49.41240 | 10.92672 | 12488 ft | 315 kts | 102° |
| 2026-05-05 18:11 | 49.40917 | 10.95372 | 22326 ft | 312 kts | 106° |
| 2026-05-05 18:11 | 49.40703 | 10.96755 | 22032 ft | 319 kts | 105° |
| 2026-05-05 18:12 | 49.40332 | 10.99635 | 21312 ft | 327 kts | 102° |
| 2026-05-05 18:12 | 49.40004 | 11.03116 | 20421 ft | 331 kts | 100° |
| 2026-05-05 18:12 | 49.39725 | 11.06643 | 19549 ft | 335 kts | 100° |
| 2026-05-05 18:12 | 49.39445 | 11.10207 | 18691 ft | 338 kts | 100° |
| 2026-05-05 18:13 | 49.39144 | 11.13790 | 17807 ft | 340 kts | 101° |
| 2026-05-05 18:13 | 49.38816 | 11.17406 | 16847 ft | 342 kts | 101° |
| 2026-05-05 18:13 | 49.38467 | 11.21031 | 15896 ft | 344 kts | 102° |
| 2026-05-05 18:13 | 49.38106 | 11.24664 | 15118 ft | 341 kts | 102° |
| 2026-05-05 18:14 | 49.37739 | 11.28280 | 13893 ft | 349 kts | 102° |
| 2026-05-05 18:14 | 49.37354 | 11.32024 | 12520 ft | 360 kts | 102° |
| 2026-05-05 18:14 | 49.36960 | 11.35832 | 11387 ft | 361 kts | 102° |
| 2026-05-05 18:14 | 49.36582 | 11.39558 | 10916 ft | 342 kts | 102° |
| 2026-05-05 18:15 | 49.36234 | 11.43060 | 10444 ft | 327 kts | 102° |
| 2026-05-05 18:15 | 49.35892 | 11.46471 | 9882 ft | 319 kts | 102° |
| 2026-05-05 18:15 | 49.35693 | 11.48439 | 9639 ft | 311 kts | 103° |
| 2026-05-05 18:16 | 49.35359 | 11.51705 | 9122 ft | 302 kts | 103° |
| 2026-05-05 18:16 | 49.35110 | 11.54896 | 8706 ft | 304 kts | 91° |
| 2026-05-05 18:16 | 49.35640 | 11.58043 | 8229 ft | 311 kts | 61° |
| 2026-05-05 18:16 | 49.37068 | 11.60472 | 7767 ft | 309 kts | 31° |
| 2026-05-05 18:17 | 49.39019 | 11.61624 | 7209 ft | 297 kts | 7° |
| 2026-05-05 18:17 | 49.41082 | 11.61913 | 6649 ft | 297 kts | 350° |
| 2026-05-05 18:17 | 49.42981 | 11.60930 | 6288 ft | 285 kts | 323° |
| 2026-05-05 18:17 | 49.44336 | 11.58848 | 6046 ft | 268 kts | 297° |
| 2026-05-05 18:18 | 49.44980 | 11.56290 | 5927 ft | 248 kts | 276° |
| 2026-05-05 18:18 | 49.45243 | 11.53741 | 5806 ft | 235 kts | 275° |
| 2026-05-05 18:18 | 49.45491 | 11.51320 | 5700 ft | 223 kts | 275° |
| 2026-05-05 18:18 | 49.45727 | 11.49024 | 5614 ft | 213 kts | 275° |
| 2026-05-05 18:19 | 49.45954 | 11.46796 | 5525 ft | 208 kts | 275° |
| 2026-05-05 18:19 | 49.46174 | 11.44646 | 5446 ft | 199 kts | 275° |
| 2026-05-05 18:19 | 49.46386 | 11.42563 | 5252 ft | 195 kts | 275° |
| 2026-05-05 18:19 | 49.46595 | 11.40501 | 5017 ft | 196 kts | 275° |
| 2026-05-05 18:20 | 49.46805 | 11.38427 | 4761 ft | 196 kts | 275° |
| 2026-05-05 18:20 | 49.47015 | 11.36351 | 4503 ft | 197 kts | 276° |
| 2026-05-05 18:20 | 49.47224 | 11.34287 | 4245 ft | 198 kts | 276° |
| 2026-05-05 18:20 | 49.47435 | 11.32209 | 3991 ft | 190 kts | 276° |
| 2026-05-05 18:21 | 49.47631 | 11.30268 | 3734 ft | 181 kts | 277° |
| 2026-05-05 18:21 | 49.47815 | 11.28436 | 3513 ft | 165 kts | 277° |
| 2026-05-05 18:21 | 49.47979 | 11.26813 | 3304 ft | 144 kts | 277° |
| 2026-05-05 18:21 | 49.48127 | 11.25334 | 3121 ft | 137 kts | 277° |
| 2026-05-05 18:22 | 49.48270 | 11.23906 | 2957 ft | 134 kts | 277° |
| 2026-05-05 18:22 | 49.48410 | 11.22503 | 2784 ft | 132 kts | 277° |
| 2026-05-05 18:22 | 49.48548 | 11.21114 | 2608 ft | 131 kts | 278° |
| 2026-05-05 18:22 | 49.48686 | 11.19739 | 2437 ft | 130 kts | 278° |
| 2026-05-05 18:23 | 49.48822 | 11.18372 | 2263 ft | 129 kts | 279° |
| 2026-05-05 18:23 | 49.48958 | 11.17004 | 2086 ft | 129 kts | 278° |
| 2026-05-05 18:23 | 49.49094 | 11.15630 | 1899 ft | 130 kts | 278° |
| 2026-05-05 18:23 | 49.49231 | 11.14265 | 1707 ft | 130 kts | 278° |
| 2026-05-05 18:24 | 49.49366 | 11.12880 | 1506 ft | 130 kts | 279° |
| 2026-05-05 18:24 | 49.49504 | 11.11497 | 1359 ft | 131 kts | 279° |
| 2026-05-05 18:24 | 49.49642 | 11.10114 | 1172 ft | 130 kts | 279° |
| 2026-05-05 18:24 | 49.49776 | 11.08756 | 1043 ft | 122 kts | 279° |
| 2026-05-05 18:25 | 49.49875 | 11.07757 | 1024 ft | 54 kts | 278° |
| 2026-05-05 18:25 | 49.49889 | 11.07607 | 1026 ft | 37 kts | 278° |
| 2026-05-05 18:25 | 49.49938 | 11.07101 | 1022 ft | 15 kts | 278° |
| 2026-05-05 18:25 | 49.49871 | 11.07015 | 1022 ft | 17 kts | 165° |
| 2026-05-05 18:26 | 49.49788 | 11.07068 | 1021 ft | 8 kts | 159° |
| 2026-05-05 18:26 | 49.49749 | 11.07113 | 1021 ft | 6 kts | 122° |
| 2026-05-05 18:26 | 49.49740 | 11.07171 | 1022 ft | 6 kts | 98° |
| 2026-05-05 18:26 | 49.49692 | 11.07231 | 1023 ft | 10 kts | 180° |
| 2026-05-05 18:27 | 49.49641 | 11.07245 | 1023 ft | 6 kts | 130° |
| 2026-05-05 18:27 | 49.49632 | 11.07297 | 1025 ft | 6 kts | 96° |
| 2026-05-05 18:27 | 49.49628 | 11.07347 | 1024 ft | 7 kts | 98° |
| 2026-05-05 18:27 | 49.49621 | 11.07419 | 1023 ft | 7 kts | 99° |
| 2026-05-05 18:28 | 49.49588 | 11.07523 | 1025 ft | 4 kts | 165° |
| 2026-05-05 18:28 | 49.49562 | 11.07521 | 1026 ft | 3 kts | 187° |
| 2026-05-05 18:28 | 49.49549 | 11.07518 | 1026 ft | 1 kts | 188° |
| 2026-05-05 18:29 | 49.49545 | 11.07517 | 1026 ft | 1 kts | 188° |
| 2026-05-05 18:29 | 49.49542 | 11.07516 | 1026 ft | 0 kts | 188° |